createdAt,value
2018-12-21T00:00:50.279Z,94738.62
2018-12-21T00:03:17.865Z,94740.81
2018-12-21T00:05:45.517Z,94726.69
2018-12-21T00:08:13.319Z,94740.26
2018-12-21T00:10:41.069Z,94739.84
2018-12-21T00:13:09.855Z,94740.44
2018-12-21T00:15:37.642Z,94749.81
2018-12-21T00:18:05.443Z,94745.66
2018-12-21T00:20:33.150Z,94742.21
2018-12-21T00:23:00.817Z,94729.70
2018-12-21T00:25:28.391Z,94746.80
2018-12-21T00:27:56.037Z,94745.28
2018-12-21T00:30:23.096Z,94746.95
2018-12-21T00:32:56.806Z,94748.20
2018-12-21T00:35:30.086Z,94745.05
2018-12-21T00:38:03.202Z,94748.06
2018-12-21T00:40:36.553Z,94743.27
2018-12-21T00:43:09.425Z,94741.77
2018-12-21T00:45:37.485Z,94734.73
2018-12-21T00:48:05.059Z,94736.13
2018-12-21T00:50:33.445Z,94736.72
2018-12-21T00:53:01.127Z,94729.80
2018-12-21T00:55:30.123Z,94738.46
2018-12-21T00:57:57.782Z,94736.39
2018-12-21T01:00:25.764Z,94747.85
2018-12-21T01:02:54.194Z,94753.83
2018-12-21T01:05:21.861Z,94759.17
2018-12-21T01:07:49.469Z,94764.17
2018-12-21T01:10:17.195Z,94771.79
2018-12-21T01:12:44.848Z,94770.05
2018-12-21T01:15:12.614Z,94772.84
2018-12-21T01:17:40.365Z,94779.95
2018-12-21T01:20:08.445Z,94772.26
2018-12-21T01:22:37.778Z,94785.05
2018-12-21T01:25:05.570Z,94786.16
2018-12-21T01:27:33.152Z,94791.42
2018-12-21T01:30:00.794Z,94794.00
2018-12-21T01:32:28.417Z,94792.16
2018-12-21T01:34:56.083Z,94793.44
2018-12-21T01:37:23.818Z,94798.53
2018-12-21T01:39:51.422Z,94789.47
2018-12-21T01:42:19.329Z,94793.04
2018-12-21T01:44:46.979Z,94797.85
2018-12-21T01:47:14.583Z,94785.66
2018-12-21T01:49:42.230Z,94787.39
2018-12-21T01:52:09.902Z,94782.89
2018-12-21T01:54:37.473Z,94781.92
2018-12-21T01:57:06.195Z,94776.99
2018-12-21T01:59:33.816Z,94783.33
2018-12-21T02:02:01.520Z,94784.47
2018-12-21T02:04:29.163Z,94788.54
2018-12-21T02:06:57.675Z,94782.16
2018-12-21T02:09:25.338Z,94778.36
2018-12-21T02:11:52.912Z,94769.03
2018-12-21T02:14:21.150Z,94775.40
2018-12-21T02:16:49.617Z,94766.43
2018-12-21T02:19:17.264Z,94762.14
2018-12-21T02:21:55.569Z,94748.02
2018-12-21T02:24:16.849Z,94740.98
2018-12-21T02:26:44.498Z,94740.26
2018-12-21T02:29:13.224Z,94731.81
2018-12-21T02:31:40.849Z,94724.47
2018-12-21T02:34:08.528Z,94729.31
2018-12-21T02:36:36.108Z,94729.05
2018-12-21T02:39:05.961Z,94728.80
2018-12-21T02:41:33.538Z,94722.30
2018-12-21T02:44:01.925Z,94723.49
2018-12-21T02:46:29.575Z,94729.39
2018-12-21T02:48:57.182Z,94727.78
2018-12-21T02:51:25.447Z,94734.14
2018-12-21T02:53:53.038Z,94728.92
2018-12-21T02:56:21.279Z,94732.28
2018-12-21T02:58:49.594Z,94730.16
2018-12-21T03:01:17.178Z,94731.64
2018-12-21T03:03:44.836Z,94736.73
2018-12-21T03:06:13.907Z,94735.84
2018-12-21T03:08:41.496Z,94731.77
2018-12-21T03:11:09.389Z,94734.87
2018-12-21T03:13:37.025Z,94739.83
2018-12-21T03:16:04.682Z,94745.34
2018-12-21T03:18:32.272Z,94740.17
2018-12-21T03:21:00.515Z,94707.11
2018-12-21T03:23:29.297Z,94741.19
2018-12-21T03:25:56.959Z,94735.63
2018-12-21T03:28:25.537Z,94729.60
2018-12-21T03:30:55.446Z,94727.61
2018-12-21T03:33:23.121Z,94731.22
2018-12-21T03:35:51.934Z,94729.82
2018-12-21T03:38:19.581Z,94726.37
2018-12-21T03:40:49.057Z,94717.55
2018-12-21T03:43:16.661Z,94716.14
2018-12-21T03:45:45.228Z,94718.53
2018-12-21T03:48:12.880Z,94713.39
2018-12-21T03:50:40.579Z,94710.80
2018-12-21T03:53:08.224Z,94712.14
2018-12-21T03:55:35.802Z,94713.52
2018-12-21T03:58:03.429Z,94716.35
2018-12-21T04:00:31.275Z,94711.13
2018-12-21T04:02:59.033Z,94713.05
2018-12-21T04:05:26.674Z,94721.11
2018-12-21T04:07:55.012Z,94722.94
2018-12-21T04:10:22.665Z,94727.56
2018-12-21T04:12:50.333Z,94726.89
2018-12-21T04:15:18.579Z,94713.59
2018-12-21T04:17:46.248Z,94712.24
2018-12-21T04:20:15.067Z,94705.70
2018-12-21T04:22:42.989Z,94712.88
2018-12-21T04:25:10.609Z,94717.55
2018-12-21T04:27:38.326Z,94715.76
2018-12-21T04:30:08.017Z,94712.14
2018-12-21T04:32:35.654Z,94706.09
2018-12-21T04:35:03.509Z,94694.36
2018-12-21T04:37:31.141Z,94701.20
2018-12-21T04:40:00.087Z,94695.22
2018-12-21T04:42:28.944Z,94702.00
2018-12-21T04:44:59.768Z,94691.61
2018-12-21T04:47:27.444Z,94696.58
2018-12-21T04:49:55.067Z,94692.88
2018-12-21T04:52:22.770Z,94693.56
2018-12-21T04:54:50.439Z,94698.86
2018-12-21T04:57:18.009Z,94690.33
2018-12-21T04:59:45.719Z,94694.11
2018-12-21T05:02:14.091Z,94699.98
2018-12-21T05:04:42.473Z,94705.53
2018-12-21T05:07:12.537Z,94703.66
2018-12-21T05:09:39.825Z,94705.56
2018-12-21T05:12:07.525Z,94712.88
2018-12-21T05:14:35.132Z,94709.65
2018-12-21T05:17:04.999Z,94700.66
2018-12-21T05:19:32.688Z,94700.66
2018-12-21T05:22:00.321Z,94699.72
2018-12-21T05:24:28.186Z,94710.25
2018-12-21T05:26:56.789Z,94701.92
2018-12-21T05:29:24.446Z,94712.79
2018-12-21T05:31:52.984Z,94706.34
2018-12-21T05:34:20.584Z,94696.08
2018-12-21T05:36:48.217Z,94692.12
2018-12-21T05:39:15.923Z,94699.89
2018-12-21T05:41:44.695Z,94700.83
2018-12-21T05:44:13.365Z,94704.31
2018-12-21T05:46:41.121Z,94703.20
2018-12-21T05:49:08.736Z,94704.47
2018-12-21T05:51:38.437Z,94708.25
2018-12-21T05:54:06.207Z,94706.55
2018-12-21T05:56:33.853Z,94704.34
2018-12-21T05:59:02.228Z,94703.83
2018-12-21T06:01:29.906Z,94700.08
2018-12-21T06:03:57.656Z,94700.27
2018-12-21T06:06:25.969Z,94698.05
2018-12-21T06:08:54.433Z,94697.33
2018-12-21T06:11:22.127Z,94697.30
2018-12-21T06:13:49.780Z,94693.06
2018-12-21T06:16:17.430Z,94685.42
2018-12-21T06:18:45.098Z,94685.37
2018-12-21T06:21:13.632Z,94680.09
2018-12-21T06:23:42.219Z,94683.37
2018-12-21T06:26:13.427Z,94678.89
2018-12-21T06:28:41.148Z,94684.20
2018-12-21T06:31:08.846Z,94673.67
2018-12-21T06:33:37.621Z,94668.83
2018-12-21T06:36:05.226Z,94664.75
2018-12-21T06:38:32.869Z,94661.86
2018-12-21T06:41:00.474Z,94665.77
2018-12-21T06:43:28.120Z,94652.95
2018-12-21T06:45:57.757Z,94655.29
2018-12-21T06:48:25.898Z,94656.17
2018-12-21T06:50:53.659Z,94653.75
2018-12-21T06:53:21.418Z,94645.16
2018-12-21T06:55:49.023Z,94656.03
2018-12-21T06:58:16.608Z,94642.62
2018-12-21T07:00:45.311Z,94638.24
2018-12-21T07:03:17.011Z,94646.09
2018-12-21T07:05:42.595Z,94645.83
2018-12-21T07:08:10.239Z,94637.19
2018-12-21T07:10:39.676Z,94627.20
2018-12-21T07:13:07.254Z,94637.73
2018-12-21T07:15:35.810Z,94635.02
2018-12-21T07:18:03.461Z,94626.58
2018-12-21T07:20:32.207Z,94624.44
2018-12-21T07:23:00.613Z,94624.70
2018-12-21T07:25:29.812Z,94624.52
2018-12-21T07:27:57.531Z,94619.61
2018-12-21T07:30:25.229Z,94615.85
2018-12-21T07:32:54.222Z,94615.05
2018-12-21T07:35:21.912Z,94619.21
2018-12-21T07:37:49.530Z,94616.19
2018-12-21T07:40:17.264Z,94603.72
2018-12-21T07:42:45.818Z,94600.77
2018-12-21T07:45:13.554Z,94595.00
2018-12-21T07:47:41.210Z,94595.87
2018-12-21T07:50:10.050Z,94596.73
2018-12-21T07:52:37.670Z,94596.87
2018-12-21T07:55:06.503Z,94587.92
2018-12-21T07:57:35.143Z,94581.95
2018-12-21T08:00:02.807Z,94584.84
2018-12-21T08:02:31.204Z,94579.94
2018-12-21T08:04:58.874Z,94585.00
2018-12-21T08:07:26.454Z,94578.82
2018-12-21T08:09:54.227Z,94572.84
2018-12-21T08:12:21.939Z,94577.88
2018-12-21T08:14:49.518Z,94577.88
2018-12-21T08:17:17.206Z,94574.27
2018-12-21T08:19:44.874Z,94571.28
2018-12-21T08:22:12.629Z,94577.99
2018-12-21T08:24:40.241Z,94578.39
2018-12-21T08:27:07.937Z,94582.22
2018-12-21T08:29:35.778Z,94592.38
2018-12-21T08:32:03.701Z,94581.43
2018-12-21T08:34:31.424Z,94582.77
2018-12-21T08:36:59.330Z,94583.98
2018-12-21T08:39:27.798Z,94584.30
2018-12-21T08:41:55.515Z,94565.67
2018-12-21T08:44:24.180Z,94567.28
2018-12-21T08:46:51.925Z,94571.23
2018-12-21T08:49:19.596Z,94569.91
2018-12-21T08:51:47.255Z,94566.61
2018-12-21T08:54:15.001Z,94570.95
2018-12-21T08:56:42.800Z,94569.13
2018-12-21T08:59:10.549Z,94575.05
2018-12-21T09:01:39.166Z,94575.17
2018-12-21T09:04:06.801Z,94563.44
2018-12-21T09:06:34.474Z,94557.14
2018-12-21T09:09:02.299Z,94550.98
2018-12-21T09:11:30.125Z,94547.95
2018-12-21T09:13:57.743Z,94550.40
2018-12-21T09:16:25.432Z,94548.55
2018-12-21T09:18:53.120Z,94546.55
2018-12-21T09:21:20.750Z,94547.81
2018-12-21T09:23:48.425Z,94534.92
2018-12-21T09:26:16.065Z,94532.79
2018-12-21T09:28:43.728Z,94538.08
2018-12-21T09:31:11.346Z,94531.55
2018-12-21T09:33:39.750Z,94531.09
2018-12-21T09:36:07.489Z,94527.87
2018-12-21T09:38:35.562Z,94519.44
2018-12-21T09:41:03.234Z,94524.66
2018-12-21T09:43:30.889Z,94519.11
2018-12-21T09:45:58.552Z,94515.45
2018-12-21T09:48:26.134Z,94513.08
2018-12-21T09:50:53.819Z,94515.71
2018-12-21T09:53:21.410Z,94518.48
2018-12-21T09:55:49.003Z,94517.48
2018-12-21T09:58:16.746Z,94506.86
2018-12-21T10:00:44.341Z,94499.38
2018-12-21T10:03:12.037Z,94495.14
2018-12-21T10:05:39.636Z,94483.22
2018-12-21T10:08:07.623Z,94476.55
2018-12-21T10:10:35.251Z,94477.12
2018-12-21T10:13:02.907Z,94474.30
2018-12-21T10:15:30.735Z,94466.44
2018-12-21T10:17:58.488Z,94469.03
2018-12-21T10:20:26.227Z,94465.02
2018-12-21T10:22:53.862Z,94461.08
2018-12-21T10:25:21.530Z,94458.95
2018-12-21T10:27:49.181Z,94455.27
2018-12-21T10:30:16.904Z,94445.64
2018-12-21T10:32:44.599Z,94435.90
2018-12-21T10:35:12.219Z,94428.95
2018-12-21T10:37:39.898Z,94425.77
2018-12-21T10:40:07.632Z,94418.75
2018-12-21T10:42:35.487Z,94412.14
2018-12-21T10:45:04.286Z,94400.52
2018-12-21T10:47:32.188Z,94381.66
2018-12-21T10:49:59.798Z,94401.67
2018-12-21T10:52:27.506Z,94397.55
2018-12-21T10:54:55.209Z,94388.58
2018-12-21T10:57:22.821Z,94371.25
2018-12-21T10:59:50.498Z,94372.81
2018-12-21T11:02:18.281Z,94357.94
2018-12-21T11:04:45.886Z,94361.84
2018-12-21T11:07:13.574Z,94354.55
2018-12-21T11:09:41.248Z,94332.23
2018-12-21T11:12:08.918Z,94328.70
2018-12-21T11:14:36.907Z,94335.77
2018-12-21T11:17:04.595Z,94326.00
2018-12-21T11:19:33.213Z,94311.66
2018-12-21T11:22:00.863Z,94302.00
2018-12-21T11:24:35.454Z,94309.95
2018-12-21T11:27:00.128Z,94309.67
2018-12-21T11:29:27.834Z,94295.81
2018-12-21T11:31:56.658Z,94289.91
2018-12-21T11:34:24.389Z,94280.17
2018-12-21T11:36:52.146Z,94280.32
2018-12-21T11:39:19.943Z,94272.27
2018-12-21T11:41:47.703Z,94258.00
2018-12-21T11:44:15.431Z,94257.48
2018-12-21T11:46:43.103Z,94265.09
2018-12-21T11:49:10.830Z,94258.56
2018-12-21T11:51:38.660Z,94251.11
2018-12-21T11:54:07.710Z,94253.72
2018-12-21T11:56:35.543Z,94247.34
2018-12-21T11:59:03.391Z,94237.59
2018-12-21T12:01:31.554Z,94238.33
2018-12-21T12:04:00.914Z,94241.64
2018-12-21T12:06:28.607Z,94239.25
2018-12-21T12:08:56.300Z,94235.86
2018-12-21T12:11:24.112Z,94237.23
2018-12-21T12:13:51.862Z,94240.81
2018-12-21T12:16:19.590Z,94231.59
2018-12-21T12:18:47.368Z,94216.39
2018-12-21T12:21:14.972Z,94204.34
2018-12-21T12:23:43.598Z,94204.87
2018-12-21T12:26:12.431Z,94188.72
2018-12-21T12:28:40.160Z,94185.05
2018-12-21T12:31:07.889Z,94172.29
2018-12-21T12:33:36.090Z,94176.35
2018-12-21T12:36:03.961Z,94161.77
2018-12-21T12:38:32.065Z,94165.67
2018-12-21T12:41:06.555Z,94181.63
2018-12-21T12:43:29.582Z,94184.89
2018-12-21T12:45:57.391Z,94173.88
2018-12-21T12:48:25.197Z,94187.09
2018-12-21T12:50:52.848Z,94185.50
2018-12-21T12:53:20.634Z,94175.44
2018-12-21T12:55:49.411Z,94171.44
2018-12-21T12:58:17.105Z,94172.30
2018-12-21T13:03:21.539Z,94163.19
2018-12-21T13:05:51.325Z,94165.08
2018-12-21T13:08:20.346Z,94159.50
2018-12-21T13:10:48.238Z,94156.16
2018-12-21T13:13:16.971Z,94151.69
2018-12-21T13:15:44.789Z,94141.09
2018-12-21T13:18:13.566Z,94140.94
2018-12-21T13:20:41.489Z,94144.56
2018-12-21T13:23:11.521Z,94135.26
2018-12-21T13:25:39.262Z,94134.11
2018-12-21T13:28:07.052Z,94139.73
2018-12-21T13:30:34.704Z,94133.06
2018-12-21T13:33:02.502Z,94125.06
2018-12-21T13:35:30.365Z,94124.72
2018-12-21T13:37:58.152Z,94114.88
2018-12-21T13:40:26.096Z,94117.61
2018-12-21T13:42:55.065Z,94103.39
2018-12-21T13:45:24.131Z,94105.62
2018-12-21T13:47:52.069Z,94101.28
2018-12-21T13:50:20.005Z,94091.88
2018-12-21T13:52:48.712Z,94091.86
2018-12-21T13:55:20.539Z,94069.21
2018-12-21T13:57:48.531Z,94082.27
2018-12-21T14:00:18.128Z,94088.34
2018-12-21T14:02:46.312Z,94079.69
2018-12-21T14:05:14.009Z,94071.73
2018-12-21T14:07:42.331Z,94074.02
2018-12-21T14:10:12.235Z,94063.97
2018-12-21T14:12:41.028Z,94045.30
2018-12-21T14:15:08.720Z,94030.59
2018-12-21T14:17:36.393Z,94019.92
2018-12-21T14:20:08.673Z,94026.61
2018-12-21T14:22:37.189Z,94038.75
2018-12-21T14:25:06.429Z,94045.91
2018-12-21T14:27:34.172Z,94045.44
2018-12-21T14:30:02.947Z,94042.88
2018-12-21T14:32:30.801Z,94047.66
2018-12-21T14:34:58.622Z,94050.53
2018-12-21T14:37:26.350Z,94051.93
2018-12-21T14:39:55.149Z,94041.80
2018-12-21T14:42:23.995Z,94044.48
2018-12-21T14:44:56.789Z,94038.41
2018-12-21T14:47:25.094Z,94032.83
2018-12-21T14:49:55.316Z,94033.78
2018-12-21T14:52:24.059Z,94036.80
2018-12-21T14:54:51.757Z,94036.78
2018-12-21T14:57:19.726Z,94037.24
2018-12-21T14:59:47.522Z,94060.21
2018-12-21T15:02:17.421Z,94057.39
2018-12-21T15:04:45.399Z,94049.42
2018-12-21T15:07:13.081Z,94049.27
2018-12-21T15:09:40.790Z,94049.41
2018-12-21T15:12:08.459Z,94045.89
2018-12-21T15:14:37.378Z,94042.08
2018-12-21T15:17:04.994Z,94037.14
2018-12-21T15:19:34.325Z,94042.70
2018-12-21T15:22:02.706Z,94045.91
2018-12-21T15:24:31.221Z,94053.08
2018-12-21T15:27:01.100Z,94048.45
2018-12-21T15:29:29.968Z,94046.86
2018-12-21T15:31:58.811Z,94047.81
2018-12-21T15:34:27.116Z,94040.13
2018-12-21T15:36:56.360Z,94045.53
2018-12-21T15:39:27.727Z,94037.56
2018-12-21T15:41:56.284Z,94043.64
2018-12-21T15:44:23.948Z,94046.50
2018-12-21T15:46:51.715Z,94046.83
2018-12-21T15:49:19.530Z,94046.81
2018-12-21T15:51:48.120Z,94044.77
2018-12-21T15:54:17.519Z,93998.78
2018-12-21T15:56:46.505Z,94028.65
2018-12-21T15:59:14.600Z,94032.78
2018-12-21T16:01:42.478Z,94039.64
2018-12-21T16:04:10.818Z,94045.56
2018-12-21T16:06:38.647Z,94043.00
2018-12-21T16:09:07.725Z,94043.98
2018-12-21T16:11:35.404Z,94043.67
2018-12-21T16:14:06.191Z,94044.12
2018-12-21T16:16:33.889Z,94048.28
2018-12-21T16:19:02.629Z,94059.74
2018-12-21T16:21:30.337Z,94061.19
2018-12-21T16:24:06.768Z,94059.56
2018-12-21T16:26:29.322Z,94054.00
2018-12-21T16:28:57.103Z,94062.59
2018-12-21T16:31:24.833Z,94072.04
2018-12-21T16:33:52.696Z,94061.51
2018-12-21T16:36:21.721Z,94062.31
2018-12-21T16:38:49.365Z,94063.89
2018-12-21T16:41:18.449Z,94067.88
2018-12-21T16:43:46.189Z,94068.67
2018-12-21T16:46:14.955Z,94067.89
2018-12-21T16:48:42.720Z,94069.16
2018-12-21T16:51:11.277Z,94080.80
2018-12-21T16:53:38.968Z,94074.88
2018-12-21T16:56:12.390Z,94069.80
2018-12-21T16:58:36.395Z,94071.70
2018-12-21T17:01:04.914Z,94065.33
2018-12-21T17:03:32.696Z,94060.23
2018-12-21T17:06:00.417Z,94058.52
2018-12-21T17:08:28.069Z,94057.55
2018-12-21T17:10:55.762Z,94061.88
2018-12-21T17:13:23.457Z,94063.47
2018-12-21T17:15:51.132Z,94065.55
2018-12-21T17:18:18.937Z,94069.86
2018-12-21T17:20:46.970Z,94069.73
2018-12-21T17:23:14.602Z,94067.64
2018-12-21T17:25:42.245Z,94073.73
2018-12-21T17:28:09.973Z,94083.62
2018-12-21T17:30:38.553Z,94079.31
2018-12-21T17:33:06.294Z,94092.26
2018-12-21T17:35:33.983Z,94091.61
2018-12-21T17:38:01.755Z,94093.99
2018-12-21T17:40:29.686Z,94096.08
2018-12-21T17:42:57.793Z,94099.25
2018-12-21T17:45:25.510Z,94096.72
2018-12-21T17:47:53.888Z,94099.58
2018-12-21T17:50:21.969Z,94106.12
2018-12-21T17:52:50.504Z,94106.63
2018-12-21T17:55:18.215Z,94111.41
2018-12-21T17:57:45.845Z,94114.92
2018-12-21T18:00:15.023Z,94123.86
2018-12-21T18:02:44.301Z,94118.42
2018-12-21T18:05:12.035Z,94122.92
2018-12-21T18:07:39.751Z,94119.73
2018-12-21T18:10:10.303Z,94131.39
2018-12-21T18:12:38.170Z,94132.04
2018-12-21T18:15:09.346Z,94136.83
2018-12-21T18:17:37.081Z,94136.81
2018-12-21T18:20:09.571Z,94141.46
2018-12-21T18:22:38.301Z,94137.28
2018-12-21T18:25:11.891Z,94138.57
2018-12-21T18:27:39.640Z,94132.03
2018-12-21T18:30:16.610Z,94123.25
2018-12-21T18:32:44.287Z,94118.75
2018-12-21T18:35:13.648Z,94105.98
2018-12-21T18:37:44.953Z,94097.69
2018-12-21T18:40:13.585Z,94089.22
2018-12-21T18:42:41.442Z,94090.35
2018-12-21T18:45:09.664Z,94094.47
2018-12-21T18:47:37.459Z,94076.44
2018-12-21T18:50:09.119Z,94074.67
2018-12-21T18:52:36.835Z,94078.84
2018-12-21T18:55:08.704Z,94072.12
2018-12-21T18:57:36.539Z,94076.44
2018-12-21T19:00:12.408Z,94069.09
2018-12-21T19:02:40.499Z,94057.11
2018-12-21T19:05:09.497Z,94057.11
2018-12-21T19:07:38.004Z,94058.06
2018-12-21T19:10:07.200Z,94046.09
2018-12-21T19:12:34.902Z,94052.31
2018-12-21T19:15:02.838Z,94053.28
2018-12-21T19:17:30.685Z,94036.02
2018-12-21T19:19:58.761Z,94039.22
2018-12-21T19:22:27.321Z,94037.95
2018-12-21T19:24:57.077Z,94030.76
2018-12-21T19:27:26.203Z,94029.32
2018-12-21T19:29:53.779Z,94019.09
2018-12-21T19:32:21.488Z,94029.16
2018-12-21T19:34:49.223Z,94030.12
2018-12-21T19:37:16.930Z,94018.14
2018-12-21T19:39:44.686Z,94015.59
2018-12-21T19:42:12.318Z,94022.27
2018-12-21T19:44:40.274Z,94005.33
2018-12-21T19:47:08.053Z,94000.22
2018-12-21T19:49:36.127Z,93990.31
2018-12-21T19:52:03.919Z,93995.27
2018-12-21T19:54:32.541Z,93993.51
2018-12-21T19:57:04.607Z,93986.80
2018-12-21T19:59:35.252Z,93990.31
2018-12-21T20:02:02.955Z,93971.45
2018-12-21T20:04:31.630Z,93981.52
2018-12-21T20:06:59.329Z,93982.00
2018-12-21T20:09:27.054Z,93972.73
2018-12-21T20:11:55.597Z,93972.24
2018-12-21T20:14:25.826Z,93971.92
2018-12-21T20:16:53.498Z,93965.05
2018-12-21T20:19:21.102Z,93973.36
2018-12-21T20:21:48.756Z,93977.68
2018-12-21T20:24:17.815Z,93973.37
2018-12-21T20:26:45.826Z,93974.80
2018-12-21T20:29:13.657Z,93983.56
2018-12-21T20:31:41.316Z,93977.48
2018-12-21T20:34:09.028Z,93974.92
2018-12-21T20:36:36.689Z,93975.23
2018-12-21T20:39:08.077Z,93982.59
2018-12-21T20:41:36.397Z,93979.55
2018-12-21T20:44:04.636Z,93982.91
2018-12-21T20:46:33.395Z,93981.78
2018-12-21T20:49:01.043Z,93976.35
2018-12-21T20:51:30.706Z,93979.38
2018-12-21T20:53:58.464Z,93980.02
2018-12-21T20:56:27.057Z,93980.02
2018-12-21T20:58:56.399Z,93977.63
2018-12-21T21:01:24.459Z,93970.75
2018-12-21T21:03:52.185Z,93970.11
2018-12-21T21:06:19.933Z,93974.91
2018-12-21T21:08:47.765Z,93977.00
2018-12-21T21:11:24.001Z,93978.11
2018-12-21T21:13:45.654Z,93971.72
2018-12-21T21:16:14.321Z,93980.98
2018-12-21T21:18:43.328Z,93984.19
2018-12-21T21:21:13.004Z,93993.46
2018-12-21T21:23:41.153Z,94005.96
2018-12-21T21:26:08.905Z,94006.12
2018-12-21T21:28:37.510Z,94023.67
2018-12-21T21:31:05.118Z,94026.22
2018-12-21T21:33:33.060Z,94022.86
2018-12-21T21:36:00.826Z,94033.73
2018-12-21T21:38:28.787Z,94020.14
2018-12-21T21:40:57.274Z,94012.47
2018-12-21T21:43:24.978Z,94012.59
2018-12-21T21:45:53.860Z,94010.98
2018-12-21T21:48:21.631Z,94019.47
2018-12-21T21:50:49.358Z,94010.07
2018-12-21T21:53:17.099Z,94013.11
2018-12-21T21:55:44.711Z,94011.31
2018-12-21T21:58:12.457Z,94005.55
2018-12-21T22:00:40.317Z,94010.35
2018-12-21T22:03:08.069Z,94002.84
2018-12-21T22:05:35.682Z,94005.08
2018-12-21T22:08:03.375Z,94012.25
2018-12-21T22:10:30.998Z,94003.61
2018-12-21T22:12:58.640Z,93995.63
2018-12-21T22:15:26.256Z,93996.11
2018-12-21T22:17:53.893Z,93986.70
2018-12-21T22:20:21.500Z,93986.05
2018-12-21T22:22:49.180Z,94004.27
2018-12-21T22:25:16.754Z,93987.64
2018-12-21T22:27:48.131Z,93990.20
2018-12-21T22:30:14.209Z,93986.41
2018-12-21T22:32:42.061Z,93987.02
2018-12-21T22:35:09.714Z,93977.57
2018-12-21T22:37:37.507Z,93971.02
2018-12-21T22:40:05.375Z,93965.27
2018-12-21T22:42:33.287Z,93961.91
2018-12-21T22:45:00.925Z,93963.02
2018-12-21T22:47:28.662Z,93960.14
2018-12-21T22:49:56.321Z,93974.84
2018-12-21T22:52:23.930Z,93955.02
2018-12-21T22:54:51.557Z,93969.73
2018-12-21T22:57:19.185Z,93984.60
2018-12-21T22:59:46.882Z,93973.41
2018-12-21T23:02:14.704Z,93980.93
2018-12-21T23:04:42.284Z,93983.30
2018-12-21T23:07:09.965Z,93988.91
2018-12-21T23:09:37.525Z,93990.67
2018-12-21T23:12:05.159Z,93988.84
2018-12-21T23:14:32.814Z,93994.94
2018-12-21T23:17:00.403Z,93999.46
2018-12-21T23:19:28.142Z,93989.88
2018-12-21T23:21:55.716Z,93991.16
2018-12-21T23:24:23.437Z,93995.13
2018-12-21T23:26:51.011Z,93993.06
2018-12-21T23:29:18.709Z,93970.64
2018-12-21T23:31:46.455Z,93973.81
2018-12-21T23:34:14.115Z,93964.84
2018-12-21T23:36:41.763Z,93951.42
2018-12-21T23:39:09.353Z,93957.00
2018-12-21T23:41:37.007Z,93945.31
2018-12-21T23:44:04.667Z,93957.42
2018-12-21T23:46:32.302Z,93955.71
2018-12-21T23:49:00.010Z,93958.59
2018-12-21T23:51:27.781Z,93953.59
2018-12-21T23:53:55.424Z,93952.84
2018-12-21T23:56:23.207Z,93946.29
2018-12-21T23:58:51.068Z,93931.41
